Terminal Aerodrome Forecast
Issued by NWS

Home | Current Version | Previous Version | Graphics & Text | Print | Product List | Glossary Off
Versions: 1 2 3 4 5 6 7 8 9 10 11 12 13

000
FTUS43 KDDC 290528
TAFHYS
TAF
KHYS 290528Z 2906/3006 VRB03KT P6SM BKN150
     FM291100 VRB03KT 5SM BR BKN100
     FM291400 09007KT P6SM BKN080=

USA.gov is the U.S. government's official web portal to all federal, state and local government web resources and services.